Buoy 46930

sailwx.info

Track history (hours):
 
Tides and Currents Weather Stations Pressure Air Temp Water Temp Dewpoint Dewpoint Depression Visibility Wind Speed Wind Dir Waves Ship Positions

Drifting buoy 46930

Last reported at 2014-Nov-28 04:00 UTC. Time now 2014-Nov-28 05:45 UTC.
Position N 19°11' W 118°47'.

Water temperature 24.5 ° C

Date/timePositionNaut miles runAvg speedWind from/ knotsBaromVisibWave heightAir tempDewpointWater temp
2014-Nov-28 04:00N 19°11' W 118°47'1 0.6 24.5
2014-Nov-28 03:00N 19°12' W 118°47'0 0.0 24.5
2014-Nov-28 01:00N 19°12' W 118°47'1 0.4 24.6
2014-Nov-27 23:00N 19°13' W 118°47'1 1.1 24.7
2014-Nov-27 22:00N 19°13' W 118°46'2 1.7 24.7
2014-Nov-27 21:00N 19°12' W 118°47'0 0.0 24.7
2014-Nov-27 19:00N 19°12' W 118°47'0 0.0 24.5
2014-Nov-27 18:00N 19°12' W 118°47'1 0.6 24.5
2014-Nov-27 17:00N 19°12' W 118°48'1 0.6 24.5
2014-Nov-27 16:00N 19°12' W 118°47'1 0.3 24.4
2014-Nov-27 14:00N 19°12' W 118°48'1 0.8 24.4
2014-Nov-27 13:00N 19°11' W 118°49'0 0.0 24.4
2014-Nov-27 12:00N 19°11' W 118°49'1 0.6 24.4
2014-Nov-27 11:00N 19°11' W 118°49'1 0.3 24.5
2014-Nov-27 08:00N 19°10' W 118°49'1 0.3 24.5
2014-Nov-27 06:00N 19°10' W 118°49'1 1.3 24.5
2014-Nov-27 05:00N 19°10' W 118°50'2 2.1 24.5
2014-Nov-27 04:00N 19°11' W 118°49'1 1.2 24.5
2014-Nov-27 03:00N 19°10' W 118°49'0 0.0 24.6
2014-Nov-27 02:00N 19°10' W 118°49'1 0.5 24.6
2014-Nov-27 01:00N 19°10' W 118°49'0 0.1 24.6
2014-Nov-27 00:00N 19°10' W 118°49'1 0.6 24.6
2014-Nov-26 23:00N 19°10' W 118°49'1 0.4 24.6
2014-Nov-26 21:00N 19°11' W 118°49'0 0.0 24.7
2014-Nov-26 20:00N 19°11' W 118°49'1 0.6 24.7
2014-Nov-26 19:00N 19°10' W 118°49'1 0.4 24.6
2014-Nov-26 17:00N 19°11' W 118°50'1 0.6 24.6
2014-Nov-26 16:00N 19°11' W 118°50'2 1.9 24.6
2014-Nov-26 15:00N 19°10' W 118°50'1 1.2 24.6
2014-Nov-26 14:00N 19°11' W 118°50'1 0.8 24.6
2014-Nov-26 13:00N 19°10' W 118°51'0 0.0 24.7
2014-Nov-26 12:00N 19°10' W 118°51'0 0.2 24.7
2014-Nov-26 11:00N 19°10' W 118°51'1 0.2 24.7
2014-Nov-26 08:00N 19°10' W 118°51'0 0.1 24.7
2014-Nov-26 06:00N 19°10' W 118°52'1 1.0 24.8
2014-Nov-26 05:00N 19°10' W 118°53'0 0.4 24.8
2014-Nov-26 04:00N 19°10' W 118°52'0 0.0 24.8
2014-Nov-26 03:00N 19°10' W 118°52'1 1.1 24.8
2014-Nov-26 02:00N 19°10' W 118°53'0 0.0 24.9
2014-Nov-26 01:00N 19°10' W 118°53'1 0.3 24.8
2014-Nov-25 23:00N 19°10' W 118°53'1 0.6 24.9
2014-Nov-25 22:00N 19°10' W 118°53'0 0.1 24.9
2014-Nov-25 20:00N 19°10' W 118°54'0 0.2 24.8
2014-Nov-25 18:00N 19°10' W 118°54'1 0.4 24.7
2014-Nov-25 16:00N 19°10' W 118°55'0 0.2 24.7
2014-Nov-25 14:00N 19°10' W 118°55'1 0.6 24.7
2014-Nov-25 13:00N 19°10' W 118°56'0 0.0 24.7
2014-Nov-25 11:00N 19°10' W 118°56'0 0.2 24.7
2014-Nov-25 10:00N 19°10' W 118°56'0 0.1 24.7
2014-Nov-25 08:00N 19°10' W 118°56'1 0.2 24.7
2014-Nov-25 05:00N 19°11' W 118°56'1 0.5 24.8
2014-Nov-25 04:00N 19°11' W 118°55'0 0.2 24.8
2014-Nov-25 02:00N 19°11' W 118°56'1 0.3 24.8
2014-Nov-25 00:00N 19°11' W 118°56'1 0.6 24.8
2014-Nov-24 23:00N 19°10' W 118°56'0 0.0 24.8
2014-Nov-24 22:00N 19°10' W 118°56'1 0.3 24.8
2014-Nov-24 20:00N 19°10' W 118°57'1 0.4 24.8
2014-Nov-24 18:00N 19°10' W 118°56'0 0.0 24.8
2014-Nov-24 17:00N 19°10' W 118°56'1 0.6 24.8
2014-Nov-24 16:00N 19°10' W 118°56'0 0.0 24.8
2014-Nov-24 15:00N 19°10' W 118°56'0 0.0 24.8
2014-Nov-24 13:00N 19°10' W 118°56'0 0.0 24.8
2014-Nov-24 12:00N 19°10' W 118°56'1 0.6 24.8
2014-Nov-24 11:00N 19°10' W 118°56'1 0.8 24.8
2014-Nov-24 10:00N 19°11' W 118°56'0 0.2 24.8
2014-Nov-24 08:00N 19°11' W 118°56'1 0.4 24.9
2014-Nov-24 06:00N 19°11' W 118°56'1 0.7 24.9
2014-Nov-24 04:00N 19°13' W 118°55'0 0.0 24.9
2014-Nov-24 03:00N 19°13' W 118°55'2 0.6 24.9
2014-Nov-24 00:00N 19°13' W 118°57'0 0.0 24.9
2014-Nov-23 23:00N 19°13' W 118°57'1 0.6 24.9
2014-Nov-23 22:00N 19°13' W 118°57'1 0.6 24.9
2014-Nov-23 20:00N 19°13' W 118°58'0 0.0 24.9
2014-Nov-23 18:00N 19°13' W 118°58'1 0.6 24.9
2014-Nov-23 17:00N 19°13' W 118°58'1 0.8 24.9
2014-Nov-23 16:00N 19°13' W 118°58'0 0.0 24.9
2014-Nov-23 15:00N 19°13' W 118°58'0 0.0 24.9
2014-Nov-23 14:00N 19°13' W 118°58'1 0.8 24.9
2014-Nov-23 13:00N 19°13' W 118°57'0 0.4 24.9
2014-Nov-23 12:00N 19°13' W 118°57'0 0.4 24.8
2014-Nov-23 11:00N 19°13' W 118°57'1 0.3 24.8
2014-Nov-23 06:00N 19°12' W 118°56'0 0.0 24.9
2014-Nov-23 05:00N 19°12' W 118°56'1 0.4 24.9
2014-Nov-23 03:00N 19°13' W 118°56'0 0.0 25.0
2014-Nov-23 02:00N 19°13' W 118°56'1 0.6 25.1
2014-Nov-23 00:00N 19°13' W 118°55'1 0.3 25.2
2014-Nov-22 22:00N 19°13' W 118°54'1 0.6 25.3
2014-Nov-22 20:00N 19°13' W 118°55'2 2.2 25.3
2014-Nov-22 19:00N 19°15' W 118°54'0 0.4 25.3
2014-Nov-22 18:00N 19°15' W 118°53'1 0.6 25.3
2014-Nov-22 17:00N 19°15' W 118°54'1 1.3 25.3
2014-Nov-22 16:00N 19°16' W 118°53'0 0.0 25.3
2014-Nov-22 15:00N 19°16' W 118°53'0 0.0 25.3
2014-Nov-22 14:00N 19°16' W 118°53'1 0.8 25.3
2014-Nov-22 13:00N 19°17' W 118°54'0 0.0 25.3
2014-Nov-22 12:00N 19°17' W 118°54'0 0.0 25.3
2014-Nov-22 11:00N 19°17' W 118°54'1 0.2 25.3
2014-Nov-22 06:00N 19°17' W 118°53'1 1.2 25.3
2014-Nov-22 05:00N 19°16' W 118°53'2 1.7 25.3
2014-Nov-22 04:00N 19°16' W 118°52'1 1.3 25.3
2014-Nov-22 03:00N 19°17' W 118°51'0 0.0 25.3
2014-Nov-22 01:00N 19°17' W 118°51'1 0.8 25.3
2014-Nov-22 00:00N 19°18' W 118°50'1 0.8 25.4
2014-Nov-21 23:00N 19°19' W 118°50'2 0.7 25.4
2014-Nov-21 20:00N 19°21' W 118°49'1 0.4 25.4
2014-Nov-21 17:00N 19°22' W 118°50'0 0.0 25.4
2014-Nov-21 16:00N 19°22' W 118°50'1 0.2 25.4
2014-Nov-21 13:00N 19°22' W 118°49'1 0.3 25.4
2014-Nov-21 11:00N 19°22' W 118°49'1 0.4 25.4
2014-Nov-21 08:00N 19°23' W 118°48'0 0.1 25.5
2014-Nov-21 06:00N 19°23' W 118°49'0 0.0 25.5
2014-Nov-21 05:00N 19°23' W 118°49'1 0.8 25.5
2014-Nov-21 04:00N 19°23' W 118°48'1 0.8 25.5
2014-Nov-21 03:00N 19°24' W 118°47'1 0.3 25.5
2014-Nov-21 01:00N 19°23' W 118°47'1 0.6 25.6
2014-Nov-21 00:00N 19°23' W 118°47'1 0.6 25.6
2014-Nov-20 23:00N 19°24' W 118°47'0 0.0 25.6
2014-Nov-20 22:00N 19°24' W 118°47'1 1.1 25.6
2014-Nov-20 21:00N 19°25' W 118°46'0 0.1 25.6
2014-Nov-20 18:00N 19°25' W 118°46'0 0.3 25.6
2014-Nov-20 17:00N 19°25' W 118°46'0 0.3 25.6
2014-Nov-20 16:00N 19°25' W 118°46'1 0.3 25.6
2014-Nov-20 14:00N 19°25' W 118°46'0 0.0 25.6
2014-Nov-20 13:00N 19°25' W 118°46'1 1.3 25.6
2014-Nov-20 12:00N 19°26' W 118°44'1 0.8 25.6
2014-Nov-20 11:00N 19°26' W 118°44'1 0.6 25.6
2014-Nov-20 09:00N 19°28' W 118°44'1 0.3 25.6
2014-Nov-20 05:00N 19°29' W 118°43'0 0.0 25.7
2014-Nov-20 04:00N 19°29' W 118°43'0 0.4 25.7
2014-Nov-20 03:00N 19°29' W 118°43'0 0.4 25.7
2014-Nov-20 02:00N 19°29' W 118°43'1 0.6 25.7
2014-Nov-20 01:00N 19°29' W 118°43'0 0.0 25.7
2014-Nov-19 23:00N 19°29' W 118°43'1 0.7 25.7
2014-Nov-19 21:00N 19°31' W 118°43'1 0.3 25.7
2014-Nov-19 19:00N 19°31' W 118°42'1 0.6 25.7
2014-Nov-19 18:00N 19°31' W 118°42'1 0.6 25.6
2014-Nov-19 17:00N 19°31' W 118°43'0 0.0 25.6
2014-Nov-19 16:00N 19°31' W 118°43'0 0.0 25.6
2014-Nov-19 14:00N 19°31' W 118°43'1 1.1 25.6
2014-Nov-19 13:00N 19°31' W 118°41'1 0.6 25.6
2014-Nov-19 12:00N 19°32' W 118°41'0 0.2 25.6
2014-Nov-19 11:00N 19°32' W 118°41'1 0.3 25.6
2014-Nov-19 09:00N 19°32' W 118°41'0 0.0 25.7
2014-Nov-19 08:00N 19°32' W 118°41'1 0.4 25.7
2014-Nov-19 06:00N 19°33' W 118°41'0 0.0 25.7
2014-Nov-19 05:00N 19°33' W 118°41'1 0.8 25.7
2014-Nov-19 04:00N 19°34' W 118°40'0 0.0 25.7
2014-Nov-19 03:00N 19°34' W 118°40'1 0.8 25.7
2014-Nov-19 02:00N 19°34' W 118°41'1 0.6 25.8
2014-Nov-19 01:00N 19°34' W 118°41'1 0.6 25.8
2014-Nov-19 00:00N 19°34' W 118°41'1 0.8 25.8
2014-Nov-18 23:00N 19°34' W 118°41'1 0.6 25.8
2014-Nov-18 21:00N 19°34' W 118°40'1 0.4 25.8
2014-Nov-18 19:00N 19°34' W 118°39'0 0.0 25.8
2014-Nov-18 18:00N 19°34' W 118°39'1 0.5 25.8
2014-Nov-18 17:00N 19°35' W 118°39'0 0.3 25.8
2014-Nov-18 16:00N 19°35' W 118°39'1 0.6 25.7
2014-Nov-18 15:00N 19°35' W 118°39'0 0.2 25.7
2014-Nov-18 13:00N 19°36' W 118°39'0 0.0 25.8
2014-Nov-18 12:00N 19°36' W 118°39'0 0.5 25.8
2014-Nov-18 11:00N 19°36' W 118°38'0 0.0 25.8
2014-Nov-18 10:00N 19°36' W 118°38'0 0.0 25.8
2014-Nov-18 08:00N 19°36' W 118°38'0 0.5 25.8
2014-Nov-18 07:00N 19°36' W 118°38'1 1.1 25.8
2014-Nov-18 06:00N 19°37' W 118°38'0 0.0 25.8
2014-Nov-18 05:00N 19°37' W 118°38'1 0.8 25.8
2014-Nov-18 04:00N 19°37' W 118°38'   25.8
Track history (hours):
 
Tides and Currents Weather Stations Pressure Air Temp Water Temp Dewpoint Dewpoint Depression Visibility Wind Speed Wind Dir Waves Ship Positions

Drifting buoy 46930

Last reported at 2014-Nov-28 04:00 UTC. Time now 2014-Nov-28 05:45 UTC.
Position N 19°11' W 118°47'.

Water temperature 24.5 ° C

Date/timePositionNaut miles runAvg speedWind from/ knotsBaromVisibWave heightAir tempDewpointWater temp
2014-Nov-28 04:00N 19°11' W 118°47'1 0.6 24.5
2014-Nov-28 03:00N 19°12' W 118°47'0 0.0 24.5
2014-Nov-28 01:00N 19°12' W 118°47'1 0.4 24.6
2014-Nov-27 23:00N 19°13' W 118°47'1 1.1 24.7
2014-Nov-27 22:00N 19°13' W 118°46'2 1.7 24.7
2014-Nov-27 21:00N 19°12' W 118°47'0 0.0 24.7
2014-Nov-27 19:00N 19°12' W 118°47'0 0.0 24.5
2014-Nov-27 18:00N 19°12' W 118°47'1 0.6 24.5
2014-Nov-27 17:00N 19°12' W 118°48'1 0.6 24.5
2014-Nov-27 16:00N 19°12' W 118°47'1 0.3 24.4
2014-Nov-27 14:00N 19°12' W 118°48'1 0.8 24.4
2014-Nov-27 13:00N 19°11' W 118°49'0 0.0 24.4
2014-Nov-27 12:00N 19°11' W 118°49'1 0.6 24.4
2014-Nov-27 11:00N 19°11' W 118°49'1 0.3 24.5
2014-Nov-27 08:00N 19°10' W 118°49'1 0.3 24.5
2014-Nov-27 06:00N 19°10' W 118°49'1 1.3 24.5
2014-Nov-27 05:00N 19°10' W 118°50'2 2.1 24.5
2014-Nov-27 04:00N 19°11' W 118°49'1 1.2 24.5
2014-Nov-27 03:00N 19°10' W 118°49'0 0.0 24.6
2014-Nov-27 02:00N 19°10' W 118°49'1 0.5 24.6
2014-Nov-27 01:00N 19°10' W 118°49'0 0.1 24.6
2014-Nov-27 00:00N 19°10' W 118°49'1 0.6 24.6
2014-Nov-26 23:00N 19°10' W 118°49'1 0.4 24.6
2014-Nov-26 21:00N 19°11' W 118°49'0 0.0 24.7
2014-Nov-26 20:00N 19°11' W 118°49'1 0.6 24.7
2014-Nov-26 19:00N 19°10' W 118°49'1 0.4 24.6
2014-Nov-26 17:00N 19°11' W 118°50'1 0.6 24.6
2014-Nov-26 16:00N 19°11' W 118°50'2 1.9 24.6
2014-Nov-26 15:00N 19°10' W 118°50'1 1.2 24.6
2014-Nov-26 14:00N 19°11' W 118°50'1 0.8 24.6
2014-Nov-26 13:00N 19°10' W 118°51'0 0.0 24.7
2014-Nov-26 12:00N 19°10' W 118°51'0 0.2 24.7
2014-Nov-26 11:00N 19°10' W 118°51'1 0.2 24.7
2014-Nov-26 08:00N 19°10' W 118°51'0 0.1 24.7
2014-Nov-26 06:00N 19°10' W 118°52'1 1.0 24.8
2014-Nov-26 05:00N 19°10' W 118°53'0 0.4 24.8
2014-Nov-26 04:00N 19°10' W 118°52'0 0.0 24.8
2014-Nov-26 03:00N 19°10' W 118°52'1 1.1 24.8
2014-Nov-26 02:00N 19°10' W 118°53'0 0.0 24.9
2014-Nov-26 01:00N 19°10' W 118°53'1 0.3 24.8
2014-Nov-25 23:00N 19°10' W 118°53'1 0.6 24.9
2014-Nov-25 22:00N 19°10' W 118°53'0 0.1 24.9
2014-Nov-25 20:00N 19°10' W 118°54'0 0.2 24.8
2014-Nov-25 18:00N 19°10' W 118°54'1 0.4 24.7
2014-Nov-25 16:00N 19°10' W 118°55'0 0.2 24.7
2014-Nov-25 14:00N 19°10' W 118°55'1 0.6 24.7
2014-Nov-25 13:00N 19°10' W 118°56'0 0.0 24.7
2014-Nov-25 11:00N 19°10' W 118°56'0 0.2 24.7
2014-Nov-25 10:00N 19°10' W 118°56'0 0.1 24.7
2014-Nov-25 08:00N 19°10' W 118°56'1 0.2 24.7
2014-Nov-25 05:00N 19°11' W 118°56'1 0.5 24.8
2014-Nov-25 04:00N 19°11' W 118°55'0 0.2 24.8
2014-Nov-25 02:00N 19°11' W 118°56'1 0.3 24.8
2014-Nov-25 00:00N 19°11' W 118°56'1 0.6 24.8
2014-Nov-24 23:00N 19°10' W 118°56'0 0.0 24.8
2014-Nov-24 22:00N 19°10' W 118°56'1 0.3 24.8
2014-Nov-24 20:00N 19°10' W 118°57'1 0.4 24.8
2014-Nov-24 18:00N 19°10' W 118°56'0 0.0 24.8
2014-Nov-24 17:00N 19°10' W 118°56'1 0.6 24.8
2014-Nov-24 16:00N 19°10' W 118°56'0 0.0 24.8
2014-Nov-24 15:00N 19°10' W 118°56'0 0.0 24.8
2014-Nov-24 13:00N 19°10' W 118°56'0 0.0 24.8
2014-Nov-24 12:00N 19°10' W 118°56'1 0.6 24.8
2014-Nov-24 11:00N 19°10' W 118°56'1 0.8 24.8
2014-Nov-24 10:00N 19°11' W 118°56'0 0.2 24.8
2014-Nov-24 08:00N 19°11' W 118°56'1 0.4 24.9
2014-Nov-24 06:00N 19°11' W 118°56'1 0.7 24.9
2014-Nov-24 04:00N 19°13' W 118°55'0 0.0 24.9
2014-Nov-24 03:00N 19°13' W 118°55'2 0.6 24.9
2014-Nov-24 00:00N 19°13' W 118°57'0 0.0 24.9
2014-Nov-23 23:00N 19°13' W 118°57'1 0.6 24.9
2014-Nov-23 22:00N 19°13' W 118°57'1 0.6 24.9
2014-Nov-23 20:00N 19°13' W 118°58'0 0.0 24.9
2014-Nov-23 18:00N 19°13' W 118°58'1 0.6 24.9
2014-Nov-23 17:00N 19°13' W 118°58'1 0.8 24.9
2014-Nov-23 16:00N 19°13' W 118°58'0 0.0 24.9
2014-Nov-23 15:00N 19°13' W 118°58'0 0.0 24.9
2014-Nov-23 14:00N 19°13' W 118°58'1 0.8 24.9
2014-Nov-23 13:00N 19°13' W 118°57'0 0.4 24.9
2014-Nov-23 12:00N 19°13' W 118°57'0 0.4 24.8
2014-Nov-23 11:00N 19°13' W 118°57'1 0.3 24.8
2014-Nov-23 06:00N 19°12' W 118°56'0 0.0 24.9
2014-Nov-23 05:00N 19°12' W 118°56'1 0.4 24.9
2014-Nov-23 03:00N 19°13' W 118°56'0 0.0 25.0
2014-Nov-23 02:00N 19°13' W 118°56'1 0.6 25.1
2014-Nov-23 00:00N 19°13' W 118°55'1 0.3 25.2
2014-Nov-22 22:00N 19°13' W 118°54'1 0.6 25.3
2014-Nov-22 20:00N 19°13' W 118°55'2 2.2 25.3
2014-Nov-22 19:00N 19°15' W 118°54'0 0.4 25.3
2014-Nov-22 18:00N 19°15' W 118°53'1 0.6 25.3
2014-Nov-22 17:00N 19°15' W 118°54'1 1.3 25.3
2014-Nov-22 16:00N 19°16' W 118°53'0 0.0 25.3
2014-Nov-22 15:00N 19°16' W 118°53'0 0.0 25.3
2014-Nov-22 14:00N 19°16' W 118°53'1 0.8 25.3
2014-Nov-22 13:00N 19°17' W 118°54'0 0.0 25.3
2014-Nov-22 12:00N 19°17' W 118°54'0 0.0 25.3
2014-Nov-22 11:00N 19°17' W 118°54'1 0.2 25.3
2014-Nov-22 06:00N 19°17' W 118°53'1 1.2 25.3
2014-Nov-22 05:00N 19°16' W 118°53'2 1.7 25.3
2014-Nov-22 04:00N 19°16' W 118°52'1 1.3 25.3
2014-Nov-22 03:00N 19°17' W 118°51'0 0.0 25.3
2014-Nov-22 01:00N 19°17' W 118°51'1 0.8 25.3
2014-Nov-22 00:00N 19°18' W 118°50'1 0.8 25.4
2014-Nov-21 23:00N 19°19' W 118°50'2 0.7 25.4
2014-Nov-21 20:00N 19°21' W 118°49'1 0.4 25.4
2014-Nov-21 17:00N 19°22' W 118°50'0 0.0 25.4
2014-Nov-21 16:00N 19°22' W 118°50'1 0.2 25.4
2014-Nov-21 13:00N 19°22' W 118°49'1 0.3 25.4
2014-Nov-21 11:00N 19°22' W 118°49'1 0.4 25.4
2014-Nov-21 08:00N 19°23' W 118°48'0 0.1 25.5
2014-Nov-21 06:00N 19°23' W 118°49'0 0.0 25.5
2014-Nov-21 05:00N 19°23' W 118°49'1 0.8 25.5
2014-Nov-21 04:00N 19°23' W 118°48'1 0.8 25.5
2014-Nov-21 03:00N 19°24' W 118°47'1 0.3 25.5
2014-Nov-21 01:00N 19°23' W 118°47'1 0.6 25.6
2014-Nov-21 00:00N 19°23' W 118°47'1 0.6 25.6
2014-Nov-20 23:00N 19°24' W 118°47'0 0.0 25.6
2014-Nov-20 22:00N 19°24' W 118°47'1 1.1 25.6
2014-Nov-20 21:00N 19°25' W 118°46'0 0.1 25.6
2014-Nov-20 18:00N 19°25' W 118°46'0 0.3 25.6
2014-Nov-20 17:00N 19°25' W 118°46'0 0.3 25.6
2014-Nov-20 16:00N 19°25' W 118°46'1 0.3 25.6
2014-Nov-20 14:00N 19°25' W 118°46'0 0.0 25.6
2014-Nov-20 13:00N 19°25' W 118°46'1 1.3 25.6
2014-Nov-20 12:00N 19°26' W 118°44'1 0.8 25.6
2014-Nov-20 11:00N 19°26' W 118°44'1 0.6 25.6
2014-Nov-20 09:00N 19°28' W 118°44'1 0.3 25.6
2014-Nov-20 05:00N 19°29' W 118°43'0 0.0 25.7
2014-Nov-20 04:00N 19°29' W 118°43'0 0.4 25.7
2014-Nov-20 03:00N 19°29' W 118°43'0 0.4 25.7
2014-Nov-20 02:00N 19°29' W 118°43'1 0.6 25.7
2014-Nov-20 01:00N 19°29' W 118°43'0 0.0 25.7
2014-Nov-19 23:00N 19°29' W 118°43'1 0.7 25.7
2014-Nov-19 21:00N 19°31' W 118°43'1 0.3 25.7
2014-Nov-19 19:00N 19°31' W 118°42'1 0.6 25.7
2014-Nov-19 18:00N 19°31' W 118°42'1 0.6 25.6
2014-Nov-19 17:00N 19°31' W 118°43'0 0.0 25.6
2014-Nov-19 16:00N 19°31' W 118°43'0 0.0 25.6
2014-Nov-19 14:00N 19°31' W 118°43'1 1.1 25.6
2014-Nov-19 13:00N 19°31' W 118°41'1 0.6 25.6
2014-Nov-19 12:00N 19°32' W 118°41'0 0.2 25.6
2014-Nov-19 11:00N 19°32' W 118°41'1 0.3 25.6
2014-Nov-19 09:00N 19°32' W 118°41'0 0.0 25.7
2014-Nov-19 08:00N 19°32' W 118°41'1 0.4 25.7
2014-Nov-19 06:00N 19°33' W 118°41'0 0.0 25.7
2014-Nov-19 05:00N 19°33' W 118°41'1 0.8 25.7
2014-Nov-19 04:00N 19°34' W 118°40'0 0.0 25.7
2014-Nov-19 03:00N 19°34' W 118°40'1 0.8 25.7
2014-Nov-19 02:00N 19°34' W 118°41'1 0.6 25.8
2014-Nov-19 01:00N 19°34' W 118°41'1 0.6 25.8
2014-Nov-19 00:00N 19°34' W 118°41'1 0.8 25.8
2014-Nov-18 23:00N 19°34' W 118°41'1 0.6 25.8
2014-Nov-18 21:00N 19°34' W 118°40'1 0.4 25.8
2014-Nov-18 19:00N 19°34' W 118°39'0 0.0 25.8
2014-Nov-18 18:00N 19°34' W 118°39'1 0.5 25.8
2014-Nov-18 17:00N 19°35' W 118°39'0 0.3 25.8
2014-Nov-18 16:00N 19°35' W 118°39'1 0.6 25.7
2014-Nov-18 15:00N 19°35' W 118°39'0 0.2 25.7
2014-Nov-18 13:00N 19°36' W 118°39'0 0.0 25.8
2014-Nov-18 12:00N 19°36' W 118°39'0 0.5 25.8
2014-Nov-18 11:00N 19°36' W 118°38'0 0.0 25.8
2014-Nov-18 10:00N 19°36' W 118°38'0 0.0 25.8
2014-Nov-18 08:00N 19°36' W 118°38'0 0.5 25.8
2014-Nov-18 07:00N 19°36' W 118°38'1 1.1 25.8
2014-Nov-18 06:00N 19°37' W 118°38'0 0.0 25.8
2014-Nov-18 05:00N 19°37' W 118°38'1 0.8 25.8
2014-Nov-18 04:00N 19°37' W 118°38'   25.8

Dump ship's entire track history